Time;durP1;ratioP1;P1;durP2;ratioP2;P2;SDS_P1;SDS_P2;PMS_P1;PMS_P2;Temp;Humidity;BMP_temperature;BMP_pressure;BME280_temperature;BME280_humidity;BME280_pressure;Samples;Min_cycle;Max_cycle;Signal;HPM_P1;HPM_P2
2023/01/07 00:01:39;;;;;;;0.00;0.00;;;;;;;10.24;100.00;99561.94;6162079;23;20024;-78
2023/01/07 00:04:09;;;;;;;0.10;0.10;;;;;;;10.26;100.00;99569.84;6188863;23;20579;-78
2023/01/07 00:06:46;;;;;;;0.10;0.10;;;;;;;10.16;100.00;99537.94;6187518;23;20039;-76
2023/01/07 00:09:17;;;;;;;0.00;0.00;;;;;;;10.31;100.00;99534.28;6187505;23;20126;-76
2023/01/07 00:11:44;;;;;;;0.00;0.00;;;;;;;10.24;100.00;99534.59;6188832;23;19992;-77
2023/01/07 00:14:11;;;;;;;0.00;0.00;;;;;;;10.22;100.00;99528.63;6189067;23;20001;-77
2023/01/07 00:16:37;;;;;;;0.00;0.00;;;;;;;10.16;100.00;99529.75;6163124;23;20012;-78
2023/01/07 00:19:05;;;;;;;0.00;0.00;;;;;;;10.09;100.00;99526.53;6212644;23;20004;-79
2023/01/07 00:21:31;;;;;;;0.00;0.00;;;;;;;10.11;100.00;99527.88;6188025;23;20009;-78
2023/01/07 00:23:59;;;;;;;0.00;0.00;;;;;;;10.06;100.00;99518.91;6187649;23;20100;-77
2023/01/07 00:26:28;;;;;;;0.00;0.00;;;;;;;9.96;100.00;99515.16;6214418;23;20023;-77
2023/01/07 00:28:53;;;;;;;0.00;0.00;;;;;;;10.07;100.00;99504.16;6213739;23;20008;-77
2023/01/07 00:31:41;;;;;;;0.00;0.00;;;;;;;10.12;100.00;99506.84;6163693;23;20416;-77
2023/01/07 00:34:09;;;;;;;0.00;0.00;;;;;;;10.02;100.00;99487.81;6188160;23;20027;-77
2023/01/07 00:36:38;;;;;;;0.00;0.00;;;;;;;10.14;100.00;99496.44;6165234;23;20004;-76
2023/01/07 00:39:19;;;;;;;0.00;0.00;;;;;;;10.16;100.00;99491.50;6190508;23;20024;-77
2023/01/07 00:44:47;;;;;;;0.00;0.00;;;;;;;10.10;100.00;99463.44;6153512;23;20061;-80
2023/01/07 00:47:13;;;;;;;0.00;0.00;;;;;;;10.15;100.00;99465.31;6177866;23;20327;-77
2023/01/07 00:49:38;;;;;;;0.00;0.00;;;;;;;10.17;100.00;99470.47;6213462;23;20301;-77
2023/01/07 00:52:04;;;;;;;0.00;0.00;;;;;;;10.20;100.00;99458.97;6162461;23;20004;-76
2023/01/07 00:54:29;;;;;;;0.00;0.00;;;;;;;10.32;100.00;99451.19;6164045;23;20451;-78
2023/01/07 00:56:57;;;;;;;0.10;0.10;;;;;;;10.33;100.00;99462.97;6141329;23;20004;-79
2023/01/07 00:59:27;;;;;;;0.00;0.00;;;;;;;10.31;100.00;99434.00;6189364;23;20005;-78
2023/01/07 01:01:53;;;;;;;0.10;0.10;;;;;;;10.36;100.00;99440.53;6189846;23;20011;-77
2023/01/07 01:04:27;;;;;;;0.00;0.00;;;;;;;10.41;100.00;99432.28;6190446;23;20091;-77
2023/01/07 01:06:53;;;;;;;0.10;0.10;;;;;;;10.48;100.00;99446.41;6214638;23;20215;-78
2023/01/07 01:09:20;;;;;;;0.00;0.00;;;;;;;10.42;100.00;99412.06;6188520;23;20490;-79
2023/01/07 01:11:45;;;;;;;0.00;0.00;;;;;;;10.42;100.00;99458.50;6189106;23;20143;-78
2023/01/07 01:14:11;;;;;;;0.00;0.00;;;;;;;10.41;100.00;99399.47;6189994;23;20063;-77
2023/01/07 01:16:36;;;;;;;0.00;0.00;;;;;;;10.51;100.00;99407.56;6163870;23;20012;-76
2023/01/07 01:19:01;;;;;;;0.00;0.00;;;;;;;10.47;100.00;99431.16;6142198;23;20485;-77
2023/01/07 01:21:27;;;;;;;0.00;0.00;;;;;;;10.45;100.00;99406.84;6215414;23;20005;-76
2023/01/07 01:23:52;;;;;;;0.00;0.00;;;;;;;10.47;100.00;99401.09;6188705;23;20004;-77
2023/01/07 01:26:20;;;;;;;0.00;0.00;;;;;;;10.44;100.00;99398.91;6187453;23;20095;-82
2023/01/07 01:28:45;;;;;;;0.00;0.00;;;;;;;10.37;100.00;99376.59;6188532;23;20008;-79
2023/01/07 01:31:11;;;;;;;0.00;0.00;;;;;;;10.45;100.00;99393.16;6215685;23;20013;-80
2023/01/07 01:33:37;;;;;;;0.00;0.00;;;;;;;10.39;100.00;99379.84;6216041;23;20009;-80
2023/01/07 01:36:08;;;;;;;0.00;0.00;;;;;;;10.42;100.00;99379.25;6165180;23;20454;-80
2023/01/07 01:38:34;;;;;;;0.00;0.00;;;;;;;10.45;100.00;99363.09;6190317;23;20028;-77
2023/01/07 01:40:59;;;;;;;0.00;0.00;;;;;;;10.46;100.00;99366.66;6166180;23;20015;-79
2023/01/07 01:43:32;;;;;;;0.00;0.00;;;;;;;10.45;100.00;99367.75;6141740;23;20358;-80
2023/01/07 01:46:02;;;;;;;0.00;0.00;;;;;;;10.46;100.00;99364.72;6218349;23;20035;-79
2023/01/07 01:48:36;;;;;;;0.00;0.00;;;;;;;10.39;100.00;99336.13;6191486;23;20015;-80
2023/01/07 01:51:03;;;;;;;0.00;0.00;;;;;;;10.39;100.00;99347.03;6168746;23;20051;-80
2023/01/07 01:53:32;;;;;;;0.00;0.00;;;;;;;10.25;100.00;99331.31;6190921;23;20008;-81
2023/01/07 01:56:20;;;;;;;0.00;0.00;;;;;;;10.30;100.00;99344.91;6190300;23;20422;-79
2023/01/07 01:59:08;;;;;;;0.00;0.00;;;;;;;10.35;100.00;99351.47;6191423;23;20051;-79
2023/01/07 02:01:35;;;;;;;0.00;0.00;;;;;;;10.26;100.00;99313.81;6178897;23;20000;-81
2023/01/07 02:04:07;;;;;;;0.10;0.10;;;;;;;10.33;100.00;99350.91;6166950;23;20004;-79
2023/01/07 02:06:38;;;;;;;0.00;0.00;;;;;;;10.25;100.00;99335.97;6189694;23;20020;-80
2023/01/07 02:09:06;;;;;;;0.00;0.00;;;;;;;10.27;100.00;99344.69;6167076;23;20039;-80
2023/01/07 02:11:37;;;;;;;0.00;0.00;;;;;;;10.28;100.00;99379.94;6190051;23;20020;-81
2023/01/07 02:14:10;;;;;;;0.10;0.10;;;;;;;10.20;100.00;99338.75;6190968;23;20012;-81
2023/01/07 02:16:49;;;;;;;0.00;0.00;;;;;;;10.09;100.00;99338.88;6190359;23;20015;-78
2023/01/07 02:19:40;;;;;;;0.00;0.00;;;;;;;10.05;100.00;99340.53;6190366;23;20013;-81
2023/01/07 02:22:38;;;;;;;0.00;0.00;;;;;;;10.02;100.00;99332.13;6189604;23;20005;-81
2023/01/07 02:25:40;;;;;;;0.00;0.00;;;;;;;9.87;100.00;99301.13;6189932;23;20007;-80
2023/01/07 02:28:41;;;;;;;0.00;0.00;;;;;;;9.84;100.00;99326.28;6091573;23;20015;-81
2023/01/07 02:31:12;;;;;;;0.00;0.00;;;;;;;9.84;100.00;99322.72;6148186;23;20309;-81
2023/01/07 02:34:06;;;;;;;0.00;0.00;;;;;;;9.79;100.00;99324.41;6190260;23;20032;-80
2023/01/07 02:36:48;;;;;;;0.10;0.10;;;;;;;9.78;100.00;99316.50;6190006;23;20005;-81
2023/01/07 02:39:34;;;;;;;0.00;0.00;;;;;;;9.79;100.00;99312.69;6215182;23;20083;-78
2023/01/07 02:42:09;;;;;;;0.00;0.00;;;;;;;9.74;100.00;99308.09;6189915;23;20011;-78
2023/01/07 02:44:43;;;;;;;0.10;0.10;;;;;;;9.64;100.00;99288.25;6190481;23;20061;-79
2023/01/07 02:47:24;;;;;;;0.00;0.00;;;;;;;9.58;100.00;99271.94;6190480;23;20323;-80
2023/01/07 02:49:50;;;;;;;0.00;0.00;;;;;;;9.59;100.00;99270.84;6191098;23;20016;-80
2023/01/07 02:52:26;;;;;;;0.00;0.00;;;;;;;9.67;100.00;99260.41;6189887;23;20003;-80
2023/01/07 02:55:00;;;;;;;0.08;0.08;;;;;;;9.74;100.00;99255.41;6190568;23;20000;-80
2023/01/07 02:57:42;;;;;;;0.10;0.10;;;;;;;9.73;100.00;99286.53;6189900;23;20072;-80
2023/01/07 03:00:35;;;;;;;0.00;0.00;;;;;;;9.74;100.00;99266.34;6191465;23;20031;-81
2023/01/07 03:03:41;;;;;;;0.00;0.00;;;;;;;9.69;100.00;99237.16;6216249;23;20091;-81
2023/01/07 03:06:26;;;;;;;0.00;0.00;;;;;;;9.67;100.00;99227.66;6189604;23;20048;-80
2023/01/07 03:08:57;;;;;;;0.00;0.00;;;;;;;9.80;100.00;99254.25;6191395;23;20012;-81
2023/01/07 03:11:33;;;;;;;0.00;0.00;;;;;;;9.75;100.00;99238.75;6190249;23;20116;-82
2023/01/07 03:13:59;;;;;;;0.00;0.00;;;;;;;9.91;100.00;99239.34;6189951;23;20076;-80
2023/01/07 03:16:32;;;;;;;0.00;0.00;;;;;;;9.94;100.00;99238.81;6189701;23;20431;-80
2023/01/07 03:19:06;;;;;;;0.00;0.00;;;;;;;9.93;100.00;99215.31;6189156;23;20016;-80
2023/01/07 03:21:33;;;;;;;0.00;0.00;;;;;;;9.92;100.00;99204.69;6189793;23;20122;-80
2023/01/07 03:24:00;;;;;;;0.10;0.10;;;;;;;9.99;100.00;99207.06;6189209;23;20011;-79
2023/01/07 03:26:36;;;;;;;0.00;0.00;;;;;;;9.85;100.00;99209.69;6189970;23;20308;-79
2023/01/07 03:29:08;;;;;;;0.00;0.00;;;;;;;9.75;100.00;99186.03;6189489;23;20005;-80
2023/01/07 03:31:49;;;;;;;0.00;0.00;;;;;;;9.65;100.00;99175.25;6190425;23;19989;-79
2023/01/07 03:34:22;;;;;;;0.00;0.00;;;;;;;9.61;100.00;99192.19;6190165;23;20008;-80
2023/01/07 03:36:52;;;;;;;0.10;0.10;;;;;;;9.55;100.00;99149.69;6189733;23;20032;-79
2023/01/07 03:39:22;;;;;;;0.00;0.00;;;;;;;9.56;100.00;99173.16;6189131;23;20004;-79
2023/01/07 03:44:36;;;;;;;0.00;0.00;;;;;;;9.50;100.00;99152.47;6173625;23;20015;-80
2023/01/07 03:47:06;;;;;;;0.03;0.03;;;;;;;9.51;100.00;99126.81;6190009;23;20019;-80
2023/01/07 03:49:32;;;;;;;0.00;0.00;;;;;;;9.49;100.00;99126.31;6189895;23;20039;-78
2023/01/07 03:51:57;;;;;;;0.00;0.00;;;;;;;9.55;100.00;99138.78;6187937;23;20008;-79
2023/01/07 03:54:26;;;;;;;0.10;0.10;;;;;;;9.49;100.00;99111.81;6165360;23;20004;-80
2023/01/07 03:56:52;;;;;;;0.10;0.10;;;;;;;9.51;100.00;99126.00;6189163;23;20012;-78
2023/01/07 03:59:17;;;;;;;0.00;0.00;;;;;;;9.48;100.00;99123.88;6164632;23;20067;-79
2023/01/07 04:01:43;;;;;;;0.00;0.00;;;;;;;9.46;100.00;99105.03;6163918;23;20100;-79
2023/01/07 04:04:08;;;;;;;0.00;0.00;;;;;;;9.41;100.00;99080.53;6162793;23;20000;-80
2023/01/07 04:06:33;;;;;;;0.00;0.00;;;;;;;9.49;100.00;99115.38;6165674;23;20099;-80
2023/01/07 04:09:01;;;;;;;0.00;0.00;;;;;;;9.47;100.00;99079.38;6165157;23;20051;-79
2023/01/07 04:11:27;;;;;;;0.00;0.00;;;;;;;9.45;100.00;99106.16;6166218;23;20005;-81
2023/01/07 04:13:52;;;;;;;0.00;0.00;;;;;;;9.48;100.00;99072.81;6141793;23;20059;-79
2023/01/07 04:16:18;;;;;;;0.00;0.00;;;;;;;9.50;100.00;99097.09;6190833;23;20340;-80
2023/01/07 04:18:45;;;;;;;0.00;0.00;;;;;;;9.57;100.00;99073.78;6141487;23;20328;-79
2023/01/07 04:21:11;;;;;;;0.10;0.10;;;;;;;9.45;100.00;99067.94;6140632;23;20008;-80
2023/01/07 04:23:36;;;;;;;0.00;0.00;;;;;;;9.40;100.00;99065.28;6164341;23;20000;-77
2023/01/07 04:26:02;;;;;;;0.00;0.00;;;;;;;9.42;100.00;99057.63;6161039;23;20044;-78
2023/01/07 04:28:27;;;;;;;0.00;0.00;;;;;;;9.33;100.00;99057.47;6137944;23;20005;-77
2023/01/07 04:30:53;;;;;;;0.00;0.00;;;;;;;9.29;100.00;99036.47;6163771;23;20015;-77
2023/01/07 04:33:18;;;;;;;0.00;0.00;;;;;;;9.30;100.00;99036.22;6137095;23;20036;-78
2023/01/07 04:35:47;;;;;;;0.05;0.05;;;;;;;9.22;100.00;99004.91;6163607;23;20009;-77
2023/01/07 04:38:12;;;;;;;0.00;0.00;;;;;;;9.18;100.00;99008.53;6187525;23;20089;-77
2023/01/07 04:40:37;;;;;;;0.10;0.10;;;;;;;9.13;100.00;98995.78;6212269;23;20072;-76
2023/01/07 04:43:08;;;;;;;0.00;0.00;;;;;;;9.11;100.00;99024.44;6162447;23;20074;-77
2023/01/07 04:45:35;;;;;;;0.00;0.00;;;;;;;9.10;100.00;98996.34;6161862;23;20004;-76
2023/01/07 04:48:01;;;;;;;0.00;0.00;;;;;;;8.98;100.00;98987.75;6160933;23;20380;-77
2023/01/07 04:50:34;;;;;;;0.00;0.00;;;;;;;9.06;100.00;98989.84;6187367;23;20013;-77
2023/01/07 04:52:59;;;;;;;0.00;0.00;;;;;;;9.07;100.00;99002.41;6162287;23;20084;-77
2023/01/07 04:55:24;;;;;;;0.00;0.00;;;;;;;9.00;100.00;98974.66;6188226;23;20028;-77
2023/01/07 04:57:55;;;;;;;0.00;0.00;;;;;;;8.98;100.00;98976.84;6163907;23;20427;-78
2023/01/07 05:00:21;;;;;;;0.00;0.00;;;;;;;8.95;100.00;98969.25;6163882;23;20040;-78
2023/01/07 05:02:46;;;;;;;0.00;0.00;;;;;;;8.96;100.00;98955.34;6163406;23;20040;-78
2023/01/07 05:05:11;;;;;;;0.00;0.00;;;;;;;8.97;100.00;98947.97;6186884;23;20017;-77
2023/01/07 05:07:37;;;;;;;0.00;0.00;;;;;;;8.99;100.00;98943.03;6186981;23;20011;-76
2023/01/07 05:10:03;;;;;;;0.00;0.00;;;;;;;8.96;100.00;98947.16;6212043;23;20040;-77
2023/01/07 05:12:32;;;;;;;0.00;0.00;;;;;;;8.92;100.00;98935.19;6163723;23;20035;-77
2023/01/07 05:14:58;;;;;;;0.10;0.10;;;;;;;9.02;100.00;98934.28;6192809;23;20087;-76
2023/01/07 05:17:23;;;;;;;0.08;0.08;;;;;;;9.06;100.00;98921.69;6188598;23;20367;-77
2023/01/07 05:19:49;;;;;;;0.00;0.00;;;;;;;8.97;100.00;98921.53;6195977;23;20008;-77
2023/01/07 05:22:14;;;;;;;0.00;0.00;;;;;;;9.01;100.00;98932.63;6169289;23;20008;-78
2023/01/07 05:24:42;;;;;;;0.00;0.00;;;;;;;9.02;100.00;98907.00;6139397;23;20095;-77
2023/01/07 05:27:20;;;;;;;;;;;;;;;;;;;;;
2023/01/07 05:29:46;;;;;;;0.00;0.00;;;;;;;8.99;100.00;98929.41;6189618;23;20120;-77
2023/01/07 05:32:11;;;;;;;0.00;0.00;;;;;;;8.97;100.00;98904.38;6163034;23;20028;-78
2023/01/07 05:34:37;;;;;;;0.00;0.00;;;;;;;8.93;100.00;98928.66;6161954;23;20312;-77
2023/01/07 05:37:02;;;;;;;0.00;0.00;;;;;;;8.88;100.00;98890.56;6187337;23;20004;-77
2023/01/07 05:39:30;;;;;;;0.00;0.00;;;;;;;8.91;100.00;98923.50;6163647;23;20035;-77
2023/01/07 05:41:55;;;;;;;0.00;0.00;;;;;;;8.90;100.00;98874.72;6215203;23;20001;-77
2023/01/07 05:44:28;;;;;;;0.00;0.00;;;;;;;8.91;100.00;98876.34;6189995;23;20013;-77
2023/01/07 05:47:01;;;;;;;0.00;0.00;;;;;;;8.96;100.00;98870.00;6189498;23;20453;-78
2023/01/07 05:49:28;;;;;;;0.00;0.00;;;;;;;8.93;100.00;98871.41;6190145;23;20011;-77
2023/01/07 05:51:54;;;;;;;0.00;0.00;;;;;;;8.98;100.00;98865.06;6215394;23;20017;-78
2023/01/07 05:54:22;;;;;;;0.00;0.00;;;;;;;8.88;100.00;98875.00;6165604;23;20079;-77
2023/01/07 05:56:48;;;;;;;0.00;0.00;;;;;;;8.90;100.00;98856.44;6218316;23;20424;-77
2023/01/07 05:59:13;;;;;;;0.00;0.00;;;;;;;8.91;100.00;98860.78;6167978;23;20020;-78
2023/01/07 06:01:39;;;;;;;0.00;0.00;;;;;;;8.94;100.00;98834.88;6190704;23;20012;-77
2023/01/07 06:04:05;;;;;;;0.00;0.00;;;;;;;8.96;100.00;98870.81;6141401;23;20009;-77
2023/01/07 06:06:30;;;;;;;0.00;0.00;;;;;;;8.97;100.00;98844.38;6188367;23;20147;-77
2023/01/07 06:08:56;;;;;;;0.10;0.10;;;;;;;8.89;100.00;98841.22;6164629;23;20013;-77
2023/01/07 06:11:21;;;;;;;0.00;0.00;;;;;;;8.85;100.00;98801.22;6189423;23;20005;-77
2023/01/07 06:13:47;;;;;;;0.00;0.00;;;;;;;8.86;100.00;98811.81;6217531;23;20005;-78
2023/01/07 06:16:15;;;;;;;0.00;0.00;;;;;;;8.95;100.00;98827.50;6215775;23;20054;-78
2023/01/07 06:18:40;;;;;;;0.00;0.00;;;;;;;8.97;100.00;98838.94;6218221;23;20443;-79
2023/01/07 06:21:06;;;;;;;0.00;0.00;;;;;;;8.87;100.00;98799.78;6164858;23;20009;-77
2023/01/07 06:23:49;;;;;;;0.00;0.00;;;;;;;8.87;100.00;98794.34;6166378;23;20020;-78
2023/01/07 06:26:15;;;;;;;0.00;0.00;;;;;;;8.93;100.00;98811.44;6190807;23;20009;-78
2023/01/07 06:28:42;;;;;;;0.00;0.00;;;;;;;9.00;100.00;98811.06;6219031;23;20095;-80
2023/01/07 06:31:11;;;;;;;0.03;0.03;;;;;;;9.09;100.00;98809.28;6189599;23;20039;-79
2023/01/07 06:33:36;;;;;;;0.00;0.00;;;;;;;9.13;100.00;98793.97;6189102;23;20047;-79
2023/01/07 06:36:03;;;;;;;0.00;0.00;;;;;;;9.02;100.00;98781.59;6165661;23;20010;-79
2023/01/07 06:38:29;;;;;;;0.00;0.00;;;;;;;9.00;100.00;98786.53;6189700;23;20000;-80
2023/01/07 06:40:54;;;;;;;0.00;0.00;;;;;;;8.98;100.00;98786.00;6191085;23;20119;-80
2023/01/07 06:43:19;;;;;;;0.00;0.00;;;;;;;9.04;100.00;98795.75;6189728;23;20004;-78
2023/01/07 06:45:45;;;;;;;0.00;0.00;;;;;;;9.05;100.00;98802.81;6165159;23;20012;-77
2023/01/07 06:48:10;;;;;;;0.00;0.00;;;;;;;8.99;100.00;98754.91;6165537;23;20069;-78
2023/01/07 06:50:36;;;;;;;0.00;0.00;;;;;;;8.95;100.00;98748.44;6163581;23;20009;-78
2023/01/07 06:53:01;;;;;;;0.00;0.00;;;;;;;8.93;100.00;98780.63;6164081;23;20095;-78
2023/01/07 06:55:27;;;;;;;0.00;0.00;;;;;;;8.90;100.00;98743.88;6215297;23;20004;-78
2023/01/07 06:57:55;;;;;;;0.00;0.00;;;;;;;8.93;100.00;98737.81;6164128;23;20063;-78
2023/01/07 07:00:21;;;;;;;0.10;0.10;;;;;;;8.94;100.00;98763.19;6188708;23;20008;-77
2023/01/07 07:02:48;;;;;;;0.00;0.00;;;;;;;8.90;100.00;98719.34;6162564;23;20082;-77
2023/01/07 07:05:14;;;;;;;0.00;0.00;;;;;;;8.93;100.00;98737.03;6163532;23;20028;-78
2023/01/07 07:07:47;;;;;;;0.00;0.00;;;;;;;8.90;100.00;98741.94;6188787;23;20005;-78
2023/01/07 07:10:17;;;;;;;0.00;0.00;;;;;;;8.91;100.00;98738.13;6188948;23;20012;-78
2023/01/07 07:12:45;;;;;;;0.00;0.00;;;;;;;8.87;100.00;98711.75;6187780;23;20000;-77
2023/01/07 07:15:11;;;;;;;0.00;0.00;;;;;;;8.93;100.00;98728.84;6163607;23;20076;-78
2023/01/07 07:17:36;;;;;;;0.00;0.00;;;;;;;8.95;100.00;98724.72;6162828;23;20008;-77
2023/01/07 07:20:05;;;;;;;0.00;0.00;;;;;;;8.88;100.00;98689.66;6164199;23;20013;-82
2023/01/07 07:22:30;;;;;;;0.00;0.00;;;;;;;8.74;100.00;98703.22;6190059;23;20005;-81
2023/01/07 07:25:00;;;;;;;0.10;0.10;;;;;;;8.87;100.00;98668.94;6165970;23;20091;-84
2023/01/07 07:27:26;;;;;;;0.00;0.00;;;;;;;9.00;100.00;98712.91;6189786;23;19997;-75
2023/01/07 07:29:51;;;;;;;0.10;0.10;;;;;;;9.00;100.00;98691.13;6188905;23;20027;-76
2023/01/07 07:32:17;;;;;;;0.00;0.00;;;;;;;8.95;100.00;98697.47;6188431;23;20373;-79
2023/01/07 07:34:42;;;;;;;0.10;0.10;;;;;;;8.91;100.00;98677.34;6163073;23;20648;-78
2023/01/07 07:37:08;;;;;;;0.10;0.10;;;;;;;8.97;100.00;98686.25;6186522;23;20008;-78
2023/01/07 07:39:33;;;;;;;0.00;0.00;;;;;;;9.03;100.00;98713.13;6187331;23;20008;-77
2023/01/07 07:42:02;;;;;;;0.00;0.00;;;;;;;9.03;100.00;98679.59;6135697;23;20442;-77
2023/01/07 07:44:38;;;;;;;0.00;0.00;;;;;;;9.03;100.00;98683.13;6186542;23;20020;-77
2023/01/07 07:47:03;;;;;;;0.03;0.03;;;;;;;8.98;100.00;98682.41;6186177;23;20087;-77
2023/01/07 07:49:29;;;;;;;0.00;0.00;;;;;;;9.06;100.00;98687.19;6186729;23;20032;-77
2023/01/07 07:51:59;;;;;;;0.00;0.00;;;;;;;9.09;100.00;98681.13;6185427;23;20483;-76
2023/01/07 07:54:27;;;;;;;0.00;0.00;;;;;;;9.17;100.00;98691.38;6160867;23;20027;-77
2023/01/07 07:56:52;;;;;;;0.00;0.00;;;;;;;9.07;100.00;98691.53;6185903;23;20015;-78
2023/01/07 07:59:20;;;;;;;0.00;0.00;;;;;;;9.12;100.00;98683.25;6161805;23;20008;-78
2023/01/07 08:01:48;;;;;;;0.00;0.00;;;;;;;9.13;100.00;98679.44;6185382;23;20012;-78
2023/01/07 08:04:13;;;;;;;0.05;0.05;;;;;;;9.10;100.00;98641.84;6187583;23;20011;-77
2023/01/07 08:06:38;;;;;;;0.00;0.00;;;;;;;9.17;100.00;98655.09;6214061;23;20020;-78
2023/01/07 08:09:04;;;;;;;0.00;0.00;;;;;;;9.22;100.00;98674.91;6213809;23;20087;-78
2023/01/07 08:11:29;;;;;;;0.00;0.00;;;;;;;9.29;100.00;98649.13;6161655;23;20024;-77
2023/01/07 08:13:55;;;;;;;0.00;0.00;;;;;;;9.30;100.00;98667.13;6160706;23;20008;-77
2023/01/07 08:16:20;;;;;;;0.00;0.00;;;;;;;9.22;100.00;98649.56;6155654;23;20028;-77
2023/01/07 08:18:46;;;;;;;0.00;0.00;;;;;;;9.16;100.00;98620.75;6161081;23;20009;-78
2023/01/07 08:21:11;;;;;;;0.00;0.00;;;;;;;9.21;100.00;98640.56;6160415;23;20008;-78
2023/01/07 08:23:36;;;;;;;0.00;0.00;;;;;;;9.19;100.00;98650.94;6186909;23;19996;-78
2023/01/07 08:26:12;;;;;;;0.00;0.00;;;;;;;9.20;100.00;98622.59;6185816;23;20005;-78
2023/01/07 08:29:02;;;;;;;0.00;0.00;;;;;;;9.30;100.00;98623.50;6186504;23;20446;-84
2023/01/07 08:31:28;;;;;;;0.00;0.00;;;;;;;9.30;100.00;98618.03;6186582;23;20541;-81
2023/01/07 08:33:53;;;;;;;0.00;0.00;;;;;;;9.34;100.00;98591.78;6188447;23;20043;-82
2023/01/07 08:36:19;;;;;;;0.00;0.00;;;;;;;9.32;100.00;98615.84;6186782;23;20028;-77
2023/01/07 08:38:44;;;;;;;0.00;0.00;;;;;;;9.22;100.00;98628.53;6180105;23;20416;-82
2023/01/07 08:41:09;;;;;;;0.00;0.00;;;;;;;9.33;100.00;98633.78;6157994;23;20103;-80
2023/01/07 08:43:35;;;;;;;0.00;0.00;;;;;;;9.26;100.00;98604.22;6164278;23;20030;-78
2023/01/07 08:46:01;;;;;;;0.00;0.00;;;;;;;9.34;100.00;98610.88;6161965;23;20012;-80
2023/01/07 08:48:34;;;;;;;0.00;0.00;;;;;;;9.32;100.00;98607.66;6162484;23;20009;-77
2023/01/07 08:51:00;;;;;;;0.00;0.00;;;;;;;9.38;100.00;98641.91;6187235;23;20004;-78
2023/01/07 08:53:25;;;;;;;0.00;0.00;;;;;;;9.39;100.00;98616.25;6162622;23;20242;-78
2023/01/07 08:55:54;;;;;;;0.10;0.10;;;;;;;9.31;100.00;98582.28;6162640;23;20016;-79
2023/01/07 08:58:37;;;;;;;;;;;;;;;;;;;;;
2023/01/07 09:01:05;;;;;;;0.00;0.00;;;;;;;9.37;100.00;98615.72;6215842;23;20087;-79
2023/01/07 09:03:33;;;;;;;0.00;0.00;;;;;;;9.40;100.00;98617.84;6164958;23;20028;-79
2023/01/07 09:05:59;;;;;;;0.00;0.00;;;;;;;9.39;100.00;98605.34;6163372;23;20043;-80
2023/01/07 09:08:34;;;;;;;;;;;;;;;;;;;;;
2023/01/07 09:11:20;;;;;;;0.10;0.10;;;;;;;9.46;100.00;98583.09;6218428;23;20077;-80
2023/01/07 09:13:45;;;;;;;0.00;0.00;;;;;;;9.38;100.00;98577.22;6166874;23;20068;-83
2023/01/07 09:16:11;;;;;;;0.00;0.00;;;;;;;9.38;100.00;98554.59;6193378;23;20603;-82
2023/01/07 09:18:36;;;;;;;0.03;0.03;;;;;;;9.36;100.00;98579.47;6191911;23;20004;-81
2023/01/07 09:21:04;;;;;;;0.10;0.10;;;;;;;9.39;100.00;98591.69;6192425;23;20020;-81
2023/01/07 09:23:59;;;;;;;0.10;0.10;;;;;;;9.37;100.00;98580.25;6194624;23;20012;-82
2023/01/07 09:26:46;;;;;;;0.00;0.00;;;;;;;9.32;100.00;98573.00;6195357;23;20000;-82
2023/01/07 09:29:20;;;;;;;0.00;0.00;;;;;;;9.42;100.00;98588.34;6220739;23;20007;-82
2023/01/07 09:31:55;;;;;;;0.00;0.00;;;;;;;9.44;100.00;98597.03;6169821;23;20008;-83
2023/01/07 09:34:50;;;;;;;0.00;0.00;;;;;;;9.41;100.00;98562.19;6169891;23;20008;-82
2023/01/07 09:37:26;;;;;;;0.00;0.00;;;;;;;9.43;100.00;98579.03;6196642;23;20005;-83
2023/01/07 09:40:12;;;;;;;0.00;0.00;;;;;;;9.53;100.00;98578.03;6198730;23;20027;-84
2023/01/07 09:42:56;;;;;;;0.00;0.00;;;;;;;9.33;100.00;98551.97;6198534;23;20306;-85
2023/01/07 09:45:49;;;;;;;0.00;0.00;;;;;;;9.53;100.00;98611.56;6196068;23;20009;-83
2023/01/07 09:48:38;;;;;;;0.00;0.00;;;;;;;9.59;100.00;98591.28;6196255;23;20054;-82
2023/01/07 09:51:06;;;;;;;0.00;0.00;;;;;;;9.63;100.00;98593.41;6195118;23;20036;-84
2023/01/07 09:53:36;;;;;;;0.00;0.00;;;;;;;9.70;100.00;98561.03;6195920;23;20103;-83
2023/01/07 09:56:28;;;;;;;0.00;0.00;;;;;;;9.75;100.00;98547.28;6199148;23;20015;-84
2023/01/07 09:59:01;;;;;;;0.00;0.00;;;;;;;9.82;100.00;98574.97;6196242;23;20103;-82
2023/01/07 10:01:53;;;;;;;0.03;0.03;;;;;;;9.91;100.00;98562.19;6196513;23;20009;-85
2023/01/07 10:04:49;;;;;;;0.00;0.00;;;;;;;9.78;100.00;98606.72;6198416;23;20012;-83
2023/01/07 10:08:05;;;;;;;0.10;0.10;;;;;;;9.69;100.00;98592.97;6167026;23;20347;-84
2023/01/07 10:14:21;;;;;;;0.00;0.00;;;;;;;9.72;100.00;98575.97;6194767;23;20479;-85
2023/01/07 10:17:24;;;;;;;0.00;0.00;;;;;;;9.77;100.00;98595.00;6166845;23;20008;-84
2023/01/07 10:20:28;;;;;;;;;;;;;;;;;;;;;
2023/01/07 10:23:27;;;;;;;;;;;;;;;;;;;;;
2023/01/07 10:26:10;;;;;;;;;;;;;;;;;;;;;
2023/01/07 10:28:58;;;;;;;0.00;0.00;;;;;;;10.21;100.00;98557.16;6192765;23;20040;-82
2023/01/07 10:31:31;;;;;;;0.00;0.00;;;;;;;10.78;100.00;98517.53;6167315;23;20008;-85
2023/01/07 10:41:38;;;;;;;0.00;0.00;;;;;;;10.69;100.00;98539.38;6116418;23;20090;-85
2023/01/07 10:44:45;;;;;;;;;;;;;;;;;;;;;
2023/01/07 10:47:27;;;;;;;0.00;0.00;;;;;;;10.28;100.00;98526.69;6192555;23;20028;-83
2023/01/07 10:50:27;;;;;;;0.00;0.00;;;;;;;10.40;100.00;98534.34;6165184;23;20001;-85
2023/01/07 10:53:14;;;;;;;0.00;0.00;;;;;;;10.41;100.00;98542.25;6121942;23;20108;-83
2023/01/07 10:55:55;;;;;;;0.00;0.00;;;;;;;10.31;100.00;98537.81;6165998;23;20032;-84
2023/01/07 10:58:37;;;;;;;0.00;0.00;;;;;;;10.03;100.00;98498.06;6165863;23;20013;-86
2023/01/07 11:01:14;;;;;;;0.00;0.00;;;;;;;10.05;100.00;98513.00;6165071;23;20420;-86
2023/01/07 11:03:58;;;;;;;0.10;0.10;;;;;;;9.94;100.00;98501.53;6165152;23;20001;-85
2023/01/07 11:07:03;;;;;;;;;;;;;;;;;;;;;
2023/01/07 11:09:37;;;;;;;0.00;0.00;;;;;;;10.11;100.00;98505.50;6189982;23;20088;-84
2023/01/07 11:12:56;;;;;;;0.00;0.00;;;;;;;10.12;100.00;98509.88;6188456;23;20021;-86
2023/01/07 11:15:44;;;;;;;0.10;0.10;;;;;;;9.90;100.00;98488.78;6073393;23;20030;-80
2023/01/07 11:18:20;;;;;;;0.00;0.00;;;;;;;9.81;100.00;98507.81;6085607;23;20012;-79
2023/01/07 11:20:56;;;;;;;0.00;0.00;;;;;;;9.64;100.00;98496.75;6183855;23;20001;-81
2023/01/07 11:23:32;;;;;;;0.00;0.00;;;;;;;9.89;100.00;98496.19;6184866;23;20065;-79
2023/01/07 11:26:24;;;;;;;0.00;0.00;;;;;;;10.03;100.00;98490.69;6184092;23;20001;-81
2023/01/07 11:28:59;;;;;;;0.00;0.00;;;;;;;10.14;100.00;98483.03;6184672;23;20131;-78
2023/01/07 11:31:53;;;;;;;0.00;0.00;;;;;;;10.06;100.00;98502.88;6185585;23;20332;-79
2023/01/07 11:34:28;;;;;;;0.00;0.00;;;;;;;10.04;100.00;98483.28;6187416;23;20036;-78
2023/01/07 11:37:00;;;;;;;;;;;;;;;9.98;100.00;98473.63;6186709;23;20012;-79
2023/01/07 11:39:41;;;;;;;0.10;0.10;;;;;;;9.87;100.00;98452.00;6163704;23;19916;-80
2023/01/07 11:45:22;;;;;;;0.00;0.00;;;;;;;9.89;100.00;98470.81;6188344;23;20135;-79
2023/01/07 11:48:14;;;;;;;0.00;0.00;;;;;;;9.72;100.00;98433.25;6185149;23;20042;-78
2023/01/07 11:51:01;;;;;;;0.00;0.00;;;;;;;9.87;100.00;98456.66;6185049;23;20001;-77
2023/01/07 11:54:17;;;;;;;0.00;0.00;;;;;;;9.85;100.00;98454.22;6193160;23;20005;-81
2023/01/07 11:56:53;;;;;;;0.00;0.00;;;;;;;9.92;100.00;98476.44;6196062;23;20012;-79
2023/01/07 11:59:19;;;;;;;0.00;0.00;;;;;;;9.88;100.00;98477.38;6193921;23;20021;-79
2023/01/07 12:02:21;;;;;;;0.00;0.00;;;;;;;9.89;100.00;98462.63;6191753;23;20442;-79
2023/01/07 12:04:47;;;;;;;0.00;0.00;;;;;;;9.79;100.00;98460.94;6175128;23;20035;-80
2023/01/07 12:07:25;;;;;;;;;;;;;;;;;;;;;
2023/01/07 12:10:32;;;;;;;0.00;0.00;;;;;;;9.89;100.00;98447.03;6188872;23;20028;-80
2023/01/07 12:13:23;;;;;;;0.10;0.10;;;;;;;9.97;100.00;98409.97;6161444;23;20051;-81
2023/01/07 12:16:00;;;;;;;0.00;0.00;;;;;;;10.23;100.00;98475.69;6158878;23;20015;-79
2023/01/07 12:19:17;;;;;;;0.00;0.00;;;;;;;11.01;100.00;98433.50;6159735;23;20318;-80
2023/01/07 12:22:01;;;;;;;;;;;;;;;;;;;;;
2023/01/07 12:24:44;;;;;;;0.00;0.00;;;;;;;10.84;100.00;98420.59;6189337;23;20029;-82
2023/01/07 12:27:12;;;;;;;0.00;0.00;;;;;;;10.94;100.00;98422.22;6163202;23;20004;-81
2023/01/07 12:30:04;;;;;;;0.00;0.00;;;;;;;10.54;100.00;98390.25;6163355;23;20005;-81
2023/01/07 12:32:51;;;;;;;0.08;0.08;;;;;;;10.44;100.00;98428.75;6163945;23;20005;-81